Impacts TAF Board
For situational awareness. Not to be used for flight planning purposes.
IDs:

KJAN - Jackson/Evers Intl, MS, US

Issued at 1735 UTC 07 Dec 2021
Updated at 1857 UTC 07 Dec 2021
Potential Impact None Slight Moderate High
Time1854Z 07/19Z 07/20Z 07/21Z 07/22Z 07/23Z 08/00Z 08/01Z 08/02Z 08/03Z 08/04Z 08/05Z 08/06Z 08/07Z>>
Type OBS PRVL PRVL PRVL PRVL PRVL PRVL PRVL PRVL PRVL PRVL PRVL PRVL PRVL
VIS 10 >6 >6 >6 >6 >6 >6 >6 >6 >6 >6 4 4 4
CIG 15 15 15 15 15 15 15 15 8 8 8 5 5 5
Cover OVC OVC OVC OVC OVC OVC OVC OVC OVC OVC OVC OVC OVC OVC
FltCat MVFR MVFR MVFR MVFR MVFR MVFR MVFR MVFR IFR IFR IFR IFR IFR IFR
WX -- VCSH VCSH VCSH VCSH VCSH VCSH VCSH -- -- -- BR BR BR
WDir VRB 90 90 90 90 90 90 90 VRB VRB VRB VRB VRB VRB
WSpd 0 6 6 6 6 6 6 6 0 0 0 0 0 0
WGst -- -- -- -- -- -- -- -- -- -- -- -- -- --
WSHgt -- -- -- -- -- -- -- -- -- -- -- -- -- --
WSDir -- -- -- -- -- -- -- -- -- -- -- -- -- --
WSSpd -- -- -- -- -- -- -- -- -- -- -- -- -- --
Raw TAF
KJAN 071735Z 0718/0818 09006KT P6SM VCSH OVC015
  FM080200 00000KT P6SM OVC008
  FM080500 00000KT 4SM BR OVC005
  FM081600 36005KT P6SM BKN010


Raw METAR
KJAN 071854Z 00000KT 10SM OVC015 07/03 A3009 RMK AO2 RAB1759E14 SLP190 P0000 T00720028
KJAN 071754Z VRB03KT 10SM OVC016 07/03 A3010 RMK AO2 SLP194 60000 T00720028 10072 20056 58020
KJAN 071654Z 07005KT 10SM OVC016 07/02 A3014 RMK AO2 SLP206 T00670017
KJAN 071554Z 06005KT 10SM OVC016 06/01 A3017 RMK AO2 SLP215 T00610011

METAR Board
Radar Display
Forecast Discussion
For situational awareness. Not to be used for flight planning purposes.